sensor_id;sensor_type;location;lat;lon;timestamp;temperature;humidity
80132;SHT30;69442;51.442;10.564;2023-06-19T00:01:28;25.11;39.01
80132;SHT30;69442;51.442;10.564;2023-06-19T00:03:53;25.05;38.99
80132;SHT30;69442;51.442;10.564;2023-06-19T00:06:18;25.04;39.08
80132;SHT30;69442;51.442;10.564;2023-06-19T00:08:44;24.96;39.35
80132;SHT30;69442;51.442;10.564;2023-06-19T00:11:09;24.90;39.41
80132;SHT30;69442;51.442;10.564;2023-06-19T00:13:35;24.91;39.46
80132;SHT30;69442;51.442;10.564;2023-06-19T00:16:00;24.84;39.70
80132;SHT30;69442;51.442;10.564;2023-06-19T00:18:27;24.81;39.48
80132;SHT30;69442;51.442;10.564;2023-06-19T00:20:52;24.78;39.34
80132;SHT30;69442;51.442;10.564;2023-06-19T00:23:19;24.77;39.66
80132;SHT30;69442;51.442;10.564;2023-06-19T00:25:45;24.71;39.45
80132;SHT30;69442;51.442;10.564;2023-06-19T00:28:10;24.67;39.74
80132;SHT30;69442;51.442;10.564;2023-06-19T00:30:39;24.66;39.77
80132;SHT30;69442;51.442;10.564;2023-06-19T00:33:05;24.63;39.97
80132;SHT30;69442;51.442;10.564;2023-06-19T00:35:30;24.59;40.17
80132;SHT30;69442;51.442;10.564;2023-06-19T00:37:56;24.52;40.02
80132;SHT30;69442;51.442;10.564;2023-06-19T00:40:27;24.47;40.06
80132;SHT30;69442;51.442;10.564;2023-06-19T00:42:53;24.47;39.93
80132;SHT30;69442;51.442;10.564;2023-06-19T00:45:19;24.44;39.78
80132;SHT30;69442;51.442;10.564;2023-06-19T00:47:44;24.37;39.71
80132;SHT30;69442;51.442;10.564;2023-06-19T00:50:11;24.35;39.87
80132;SHT30;69442;51.442;10.564;2023-06-19T00:52:37;24.35;40.18
80132;SHT30;69442;51.442;10.564;2023-06-19T00:55:03;24.29;40.42
80132;SHT30;69442;51.442;10.564;2023-06-19T00:57:30;24.28;40.30
80132;SHT30;69442;51.442;10.564;2023-06-19T00:59:56;24.23;40.44
80132;SHT30;69442;51.442;10.564;2023-06-19T01:02:22;24.21;40.27
80132;SHT30;69442;51.442;10.564;2023-06-19T01:04:52;24.19;40.11
80132;SHT30;69442;51.442;10.564;2023-06-19T01:07:22;24.13;40.35
80132;SHT30;69442;51.442;10.564;2023-06-19T01:09:56;24.12;40.55
80132;SHT30;69442;51.442;10.564;2023-06-19T01:12:28;24.08;40.24
80132;SHT30;69442;51.442;10.564;2023-06-19T01:15:00;24.04;40.36
80132;SHT30;69442;51.442;10.564;2023-06-19T01:17:28;24.01;40.22
80132;SHT30;69442;51.442;10.564;2023-06-19T01:19:55;23.97;40.53
80132;SHT30;69442;51.442;10.564;2023-06-19T01:22:30;23.93;40.82
80132;SHT30;69442;51.442;10.564;2023-06-19T01:24:56;23.88;40.70
80132;SHT30;69442;51.442;10.564;2023-06-19T01:27:23;23.84;41.10
80132;SHT30;69442;51.442;10.564;2023-06-19T01:29:51;23.79;41.23
80132;SHT30;69442;51.442;10.564;2023-06-19T01:32:22;23.77;41.24
80132;SHT30;69442;51.442;10.564;2023-06-19T01:34:52;23.73;41.29
80132;SHT30;69442;51.442;10.564;2023-06-19T01:37:19;23.71;41.60
80132;SHT30;69442;51.442;10.564;2023-06-19T01:39:45;23.67;41.68
80132;SHT30;69442;51.442;10.564;2023-06-19T01:42:13;23.64;41.55
80132;SHT30;69442;51.442;10.564;2023-06-19T01:44:39;23.61;41.85
80132;SHT30;69442;51.442;10.564;2023-06-19T01:47:09;23.60;41.61
80132;SHT30;69442;51.442;10.564;2023-06-19T01:49:35;23.59;41.68
80132;SHT30;69442;51.442;10.564;2023-06-19T01:52:01;23.56;41.93
80132;SHT30;69442;51.442;10.564;2023-06-19T01:54:26;23.50;42.00
80132;SHT30;69442;51.442;10.564;2023-06-19T01:56:53;23.47;42.28
80132;SHT30;69442;51.442;10.564;2023-06-19T01:59:18;23.45;42.22
80132;SHT30;69442;51.442;10.564;2023-06-19T02:01:43;23.42;42.23
80132;SHT30;69442;51.442;10.564;2023-06-19T02:04:09;23.40;42.33
80132;SHT30;69442;51.442;10.564;2023-06-19T02:06:34;23.39;42.34
80132;SHT30;69442;51.442;10.564;2023-06-19T02:08:59;23.38;42.24
80132;SHT30;69442;51.442;10.564;2023-06-19T02:11:25;23.36;42.41
80132;SHT30;69442;51.442;10.564;2023-06-19T02:13:50;23.34;42.32
80132;SHT30;69442;51.442;10.564;2023-06-19T02:16:16;23.33;42.22
80132;SHT30;69442;51.442;10.564;2023-06-19T02:18:41;23.32;42.27
80132;SHT30;69442;51.442;10.564;2023-06-19T02:21:06;23.27;42.45
80132;SHT30;69442;51.442;10.564;2023-06-19T02:23:32;23.26;42.57
80132;SHT30;69442;51.442;10.564;2023-06-19T02:25:58;23.19;42.52
80132;SHT30;69442;51.442;10.564;2023-06-19T02:28:23;23.18;42.66
80132;SHT30;69442;51.442;10.564;2023-06-19T02:30:49;23.14;42.77
80132;SHT30;69442;51.442;10.564;2023-06-19T02:33:14;23.12;42.70
80132;SHT30;69442;51.442;10.564;2023-06-19T02:35:39;23.08;42.68
80132;SHT30;69442;51.442;10.564;2023-06-19T02:38:06;23.09;42.66
80132;SHT30;69442;51.442;10.564;2023-06-19T02:40:32;23.08;42.62
80132;SHT30;69442;51.442;10.564;2023-06-19T02:42:57;23.05;42.65
80132;SHT30;69442;51.442;10.564;2023-06-19T02:45:23;23.04;42.88
80132;SHT30;69442;51.442;10.564;2023-06-19T02:47:48;22.99;42.81
80132;SHT30;69442;51.442;10.564;2023-06-19T02:50:15;22.97;42.87
80132;SHT30;69442;51.442;10.564;2023-06-19T02:52:40;22.94;43.03
80132;SHT30;69442;51.442;10.564;2023-06-19T02:55:06;22.92;42.88
80132;SHT30;69442;51.442;10.564;2023-06-19T02:57:32;22.86;42.94
80132;SHT30;69442;51.442;10.564;2023-06-19T02:59:58;22.88;42.92
80132;SHT30;69442;51.442;10.564;2023-06-19T03:02:23;22.86;42.78
80132;SHT30;69442;51.442;10.564;2023-06-19T03:04:49;22.84;42.87
80132;SHT30;69442;51.442;10.564;2023-06-19T03:07:15;22.78;43.07
80132;SHT30;69442;51.442;10.564;2023-06-19T03:09:41;22.77;43.21
80132;SHT30;69442;51.442;10.564;2023-06-19T03:12:08;22.74;43.27
80132;SHT30;69442;51.442;10.564;2023-06-19T03:14:33;22.70;43.48
80132;SHT30;69442;51.442;10.564;2023-06-19T03:16:59;22.65;43.46
80132;SHT30;69442;51.442;10.564;2023-06-19T03:19:24;22.65;43.48
80132;SHT30;69442;51.442;10.564;2023-06-19T03:21:50;22.63;43.42
80132;SHT30;69442;51.442;10.564;2023-06-19T03:24:15;22.60;43.53
80132;SHT30;69442;51.442;10.564;2023-06-19T03:26:41;22.59;43.47
80132;SHT30;69442;51.442;10.564;2023-06-19T03:29:06;22.60;43.53
80132;SHT30;69442;51.442;10.564;2023-06-19T03:31:31;22.60;43.57
80132;SHT30;69442;51.442;10.564;2023-06-19T03:33:57;22.57;43.62
80132;SHT30;69442;51.442;10.564;2023-06-19T03:36:22;22.56;43.63
80132;SHT30;69442;51.442;10.564;2023-06-19T03:38:48;22.53;43.42
80132;SHT30;69442;51.442;10.564;2023-06-19T03:41:14;22.49;43.58
80132;SHT30;69442;51.442;10.564;2023-06-19T03:43:39;22.47;43.52
80132;SHT30;69442;51.442;10.564;2023-06-19T03:46:05;22.46;43.28
80132;SHT30;69442;51.442;10.564;2023-06-19T03:48:30;22.46;43.27
80132;SHT30;69442;51.442;10.564;2023-06-19T03:50:56;22.43;43.20
80132;SHT30;69442;51.442;10.564;2023-06-19T03:53:21;22.40;43.36
80132;SHT30;69442;51.442;10.564;2023-06-19T03:55:47;22.42;43.34
80132;SHT30;69442;51.442;10.564;2023-06-19T03:58:12;22.39;43.33
80132;SHT30;69442;51.442;10.564;2023-06-19T04:00:38;22.40;43.35
80132;SHT30;69442;51.442;10.564;2023-06-19T04:03:03;22.36;43.44
80132;SHT30;69442;51.442;10.564;2023-06-19T04:05:28;22.35;43.38
80132;SHT30;69442;51.442;10.564;2023-06-19T04:07:54;22.33;43.54
80132;SHT30;69442;51.442;10.564;2023-06-19T04:10:19;22.33;43.59
80132;SHT30;69442;51.442;10.564;2023-06-19T04:12:45;22.30;43.81
80132;SHT30;69442;51.442;10.564;2023-06-19T04:15:11;22.26;44.00
80132;SHT30;69442;51.442;10.564;2023-06-19T04:17:36;22.25;43.84
80132;SHT30;69442;51.442;10.564;2023-06-19T04:20:03;22.25;43.85
80132;SHT30;69442;51.442;10.564;2023-06-19T04:22:36;22.25;43.88
80132;SHT30;69442;51.442;10.564;2023-06-19T04:25:02;22.23;43.99
80132;SHT30;69442;51.442;10.564;2023-06-19T04:27:27;22.23;44.09
80132;SHT30;69442;51.442;10.564;2023-06-19T04:29:53;22.20;44.20
80132;SHT30;69442;51.442;10.564;2023-06-19T04:32:18;22.19;44.72
80132;SHT30;69442;51.442;10.564;2023-06-19T04:34:44;22.13;44.76
80132;SHT30;69442;51.442;10.564;2023-06-19T04:37:11;22.12;44.82
80132;SHT30;69442;51.442;10.564;2023-06-19T04:39:36;22.09;44.86
80132;SHT30;69442;51.442;10.564;2023-06-19T04:42:02;22.12;44.68
80132;SHT30;69442;51.442;10.564;2023-06-19T04:44:27;22.09;44.66
80132;SHT30;69442;51.442;10.564;2023-06-19T04:46:55;22.09;44.82
80132;SHT30;69442;51.442;10.564;2023-06-19T04:49:29;22.08;44.79
80132;SHT30;69442;51.442;10.564;2023-06-19T04:51:58;22.08;44.81
80132;SHT30;69442;51.442;10.564;2023-06-19T04:54:25;22.08;44.84
80132;SHT30;69442;51.442;10.564;2023-06-19T04:56:51;22.06;44.85
80132;SHT30;69442;51.442;10.564;2023-06-19T04:59:16;22.04;45.03
80132;SHT30;69442;51.442;10.564;2023-06-19T05:01:43;22.04;45.13
80132;SHT30;69442;51.442;10.564;2023-06-19T05:04:09;22.04;45.08
80132;SHT30;69442;51.442;10.564;2023-06-19T05:06:36;21.97;45.06
80132;SHT30;69442;51.442;10.564;2023-06-19T05:09:01;21.98;45.37
80132;SHT30;69442;51.442;10.564;2023-06-19T05:11:26;21.97;45.58
80132;SHT30;69442;51.442;10.564;2023-06-19T05:13:52;21.97;45.56
80132;SHT30;69442;51.442;10.564;2023-06-19T05:16:17;21.92;45.66
80132;SHT30;69442;51.442;10.564;2023-06-19T05:18:44;21.91;45.82
80132;SHT30;69442;51.442;10.564;2023-06-19T05:21:10;21.91;45.94
80132;SHT30;69442;51.442;10.564;2023-06-19T05:23:35;21.90;46.48
80132;SHT30;69442;51.442;10.564;2023-06-19T05:26:01;21.87;46.78
80132;SHT30;69442;51.442;10.564;2023-06-19T05:28:26;21.84;46.93
80132;SHT30;69442;51.442;10.564;2023-06-19T05:30:51;21.80;47.01
80132;SHT30;69442;51.442;10.564;2023-06-19T05:33:17;21.78;47.27
80132;SHT30;69442;51.442;10.564;2023-06-19T05:35:42;21.80;47.38
80132;SHT30;69442;51.442;10.564;2023-06-19T05:38:17;21.78;47.29
80132;SHT30;69442;51.442;10.564;2023-06-19T05:40:42;21.74;47.50
80132;SHT30;69442;51.442;10.564;2023-06-19T05:43:08;21.73;47.63
80132;SHT30;69442;51.442;10.564;2023-06-19T05:45:33;21.71;47.80
80132;SHT30;69442;51.442;10.564;2023-06-19T05:47:59;21.67;47.98
80132;SHT30;69442;51.442;10.564;2023-06-19T05:50:24;21.70;47.83
80132;SHT30;69442;51.442;10.564;2023-06-19T05:52:49;21.67;47.85
80132;SHT30;69442;51.442;10.564;2023-06-19T05:55:15;21.66;47.76
80132;SHT30;69442;51.442;10.564;2023-06-19T05:57:40;21.64;47.95
80132;SHT30;69442;51.442;10.564;2023-06-19T06:00:07;21.64;48.25
80132;SHT30;69442;51.442;10.564;2023-06-19T06:02:35;21.67;48.34
80132;SHT30;69442;51.442;10.564;2023-06-19T06:05:01;21.64;48.33
80132;SHT30;69442;51.442;10.564;2023-06-19T06:07:26;21.61;48.50
80132;SHT30;69442;51.442;10.564;2023-06-19T06:09:53;21.61;48.39
80132;SHT30;69442;51.442;10.564;2023-06-19T06:12:19;21.64;48.46
80132;SHT30;69442;51.442;10.564;2023-06-19T06:14:44;21.66;48.47
80132;SHT30;69442;51.442;10.564;2023-06-19T06:17:10;21.68;48.34
80132;SHT30;69442;51.442;10.564;2023-06-19T06:19:35;21.68;48.29
80132;SHT30;69442;51.442;10.564;2023-06-19T06:22:02;21.70;48.27
80132;SHT30;69442;51.442;10.564;2023-06-19T06:24:27;21.71;48.13
80132;SHT30;69442;51.442;10.564;2023-06-19T06:26:53;21.74;48.08
80132;SHT30;69442;51.442;10.564;2023-06-19T06:29:18;21.75;48.04
80132;SHT30;69442;51.442;10.564;2023-06-19T06:31:46;21.77;47.96
80132;SHT30;69442;51.442;10.564;2023-06-19T06:34:12;21.80;48.03
80132;SHT30;69442;51.442;10.564;2023-06-19T06:36:38;21.83;48.19
80132;SHT30;69442;51.442;10.564;2023-06-19T06:39:03;21.84;48.30
80132;SHT30;69442;51.442;10.564;2023-06-19T06:41:29;21.85;48.39
80132;SHT30;69442;51.442;10.564;2023-06-19T06:43:54;21.88;48.36
80132;SHT30;69442;51.442;10.564;2023-06-19T06:46:20;21.90;48.45
80132;SHT30;69442;51.442;10.564;2023-06-19T06:48:46;21.95;48.64
80132;SHT30;69442;51.442;10.564;2023-06-19T06:51:11;21.98;48.62
80132;SHT30;69442;51.442;10.564;2023-06-19T06:53:37;22.01;48.54
80132;SHT30;69442;51.442;10.564;2023-06-19T06:56:02;22.05;48.70
80132;SHT30;69442;51.442;10.564;2023-06-19T06:58:28;22.06;48.67
80132;SHT30;69442;51.442;10.564;2023-06-19T07:00:55;22.11;48.78
80132;SHT30;69442;51.442;10.564;2023-06-19T07:03:21;22.16;48.71
80132;SHT30;69442;51.442;10.564;2023-06-19T07:05:48;22.19;48.75
80132;SHT30;69442;51.442;10.564;2023-06-19T07:08:13;22.22;48.61
80132;SHT30;69442;51.442;10.564;2023-06-19T07:10:38;22.26;48.46
80132;SHT30;69442;51.442;10.564;2023-06-19T07:13:04;22.28;48.26
80132;SHT30;69442;51.442;10.564;2023-06-19T07:15:29;22.32;48.22
80132;SHT30;69442;51.442;10.564;2023-06-19T07:17:55;22.35;48.43
80132;SHT30;69442;51.442;10.564;2023-06-19T07:20:21;22.39;48.21
80132;SHT30;69442;51.442;10.564;2023-06-19T07:22:47;22.43;48.13
80132;SHT30;69442;51.442;10.564;2023-06-19T07:25:12;22.47;47.95
80132;SHT30;69442;51.442;10.564;2023-06-19T07:27:39;22.49;47.83
80132;SHT30;69442;51.442;10.564;2023-06-19T07:30:06;22.54;47.73
80132;SHT30;69442;51.442;10.564;2023-06-19T07:32:31;22.54;47.53
80132;SHT30;69442;51.442;10.564;2023-06-19T07:34:57;22.60;47.39
80132;SHT30;69442;51.442;10.564;2023-06-19T07:37:23;22.64;47.20
80132;SHT30;69442;51.442;10.564;2023-06-19T07:39:49;22.67;46.99
80132;SHT30;69442;51.442;10.564;2023-06-19T07:42:16;22.74;46.85
80132;SHT30;69442;51.442;10.564;2023-06-19T07:44:43;22.75;46.66
80132;SHT30;69442;51.442;10.564;2023-06-19T07:47:08;22.81;46.63
80132;SHT30;69442;51.442;10.564;2023-06-19T07:49:35;22.86;46.53
80132;SHT30;69442;51.442;10.564;2023-06-19T07:52:00;22.88;46.56
80132;SHT30;69442;51.442;10.564;2023-06-19T07:54:26;22.94;46.27
80132;SHT30;69442;51.442;10.564;2023-06-19T07:56:51;23.01;46.18
80132;SHT30;69442;51.442;10.564;2023-06-19T07:59:17;23.05;46.10
80132;SHT30;69442;51.442;10.564;2023-06-19T08:01:43;23.09;46.06
80132;SHT30;69442;51.442;10.564;2023-06-19T08:04:08;23.12;45.96
80132;SHT30;69442;51.442;10.564;2023-06-19T08:06:34;23.18;45.86
80132;SHT30;69442;51.442;10.564;2023-06-19T08:08:59;23.23;45.77
80132;SHT30;69442;51.442;10.564;2023-06-19T08:11:25;23.32;45.66
80132;SHT30;69442;51.442;10.564;2023-06-19T08:13:50;23.39;45.48
80132;SHT30;69442;51.442;10.564;2023-06-19T08:16:15;23.47;45.33
80132;SHT30;69442;51.442;10.564;2023-06-19T08:18:41;23.56;45.15
80132;SHT30;69442;51.442;10.564;2023-06-19T08:21:07;23.66;44.98
80132;SHT30;69442;51.442;10.564;2023-06-19T08:23:33;23.75;44.86
80132;SHT30;69442;51.442;10.564;2023-06-19T08:25:58;23.82;44.68
80132;SHT30;69442;51.442;10.564;2023-06-19T08:28:23;23.91;44.58
80132;SHT30;69442;51.442;10.564;2023-06-19T08:30:49;24.01;44.49
80132;SHT30;69442;51.442;10.564;2023-06-19T08:33:14;24.09;44.41
80132;SHT30;69442;51.442;10.564;2023-06-19T08:35:40;24.18;44.25
80132;SHT30;69442;51.442;10.564;2023-06-19T08:38:05;24.28;44.16
80132;SHT30;69442;51.442;10.564;2023-06-19T08:40:31;24.37;44.02
80132;SHT30;69442;51.442;10.564;2023-06-19T08:42:56;24.47;43.94
80132;SHT30;69442;51.442;10.564;2023-06-19T08:45:22;24.56;43.82
80132;SHT30;69442;51.442;10.564;2023-06-19T08:47:48;24.66;43.75
80132;SHT30;69442;51.442;10.564;2023-06-19T08:50:15;24.74;43.68
80132;SHT30;69442;51.442;10.564;2023-06-19T08:52:40;24.81;43.67
80132;SHT30;69442;51.442;10.564;2023-06-19T08:55:06;24.91;43.56
80132;SHT30;69442;51.442;10.564;2023-06-19T08:57:38;24.99;43.73
80132;SHT30;69442;51.442;10.564;2023-06-19T09:00:05;25.11;43.45
80132;SHT30;69442;51.442;10.564;2023-06-19T09:02:43;25.20;43.59
80132;SHT30;69442;51.442;10.564;2023-06-19T09:05:17;25.33;43.37
80132;SHT30;69442;51.442;10.564;2023-06-19T09:07:46;25.50;43.26
80132;SHT30;69442;51.442;10.564;2023-06-19T09:10:19;25.61;43.10
80132;SHT30;69442;51.442;10.564;2023-06-19T09:13:04;25.77;43.36
80132;SHT30;69442;51.442;10.564;2023-06-19T09:15:31;25.95;42.93
80132;SHT30;69442;51.442;10.564;2023-06-19T09:20:30;26.23;42.79
80132;SHT30;69442;51.442;10.564;2023-06-19T09:22:56;26.42;42.79
80132;SHT30;69442;51.442;10.564;2023-06-19T09:25:21;26.63;42.69
80132;SHT30;69442;51.442;10.564;2023-06-19T09:27:48;26.77;42.59
80132;SHT30;69442;51.442;10.564;2023-06-19T09:30:17;26.96;42.57
80132;SHT30;69442;51.442;10.564;2023-06-19T09:32:42;27.13;42.52
80132;SHT30;69442;51.442;10.564;2023-06-19T09:35:08;27.32;42.40
80132;SHT30;69442;51.442;10.564;2023-06-19T09:37:33;27.51;42.20
80132;SHT30;69442;51.442;10.564;2023-06-19T09:40:01;27.68;42.09
80132;SHT30;69442;51.442;10.564;2023-06-19T09:42:34;27.87;42.11
80132;SHT30;69442;51.442;10.564;2023-06-19T09:45:07;27.99;41.92
80132;SHT30;69442;51.442;10.564;2023-06-19T09:50:02;28.31;41.70
80132;SHT30;69442;51.442;10.564;2023-06-19T09:52:29;28.40;41.58
80132;SHT30;69442;51.442;10.564;2023-06-19T09:54:55;28.57;41.47
80132;SHT30;69442;51.442;10.564;2023-06-19T09:57:21;28.68;41.33
80132;SHT30;69442;51.442;10.564;2023-06-19T09:59:55;28.84;41.27
80132;SHT30;69442;51.442;10.564;2023-06-19T10:02:25;28.99;41.13
80132;SHT30;69442;51.442;10.564;2023-06-19T10:04:54;29.15;41.11
80132;SHT30;69442;51.442;10.564;2023-06-19T10:07:24;29.33;40.88
80132;SHT30;69442;51.442;10.564;2023-06-19T10:10:05;29.47;40.55
80132;SHT30;69442;51.442;10.564;2023-06-19T10:12:44;29.63;40.66
80132;SHT30;69442;51.442;10.564;2023-06-19T10:17:36;29.97;40.30
80132;SHT30;69442;51.442;10.564;2023-06-19T10:20:02;30.09;40.31
80132;SHT30;69442;51.442;10.564;2023-06-19T10:22:31;30.26;40.15
80132;SHT30;69442;51.442;10.564;2023-06-19T10:24:57;30.40;39.82
80132;SHT30;69442;51.442;10.564;2023-06-19T10:27:24;30.53;39.78
80132;SHT30;69442;51.442;10.564;2023-06-19T10:29:53;30.70;39.32
80132;SHT30;69442;51.442;10.564;2023-06-19T10:32:19;30.84;39.45
80132;SHT30;69442;51.442;10.564;2023-06-19T10:34:48;30.98;39.19
80132;SHT30;69442;51.442;10.564;2023-06-19T10:37:16;31.12;39.16
80132;SHT30;69442;51.442;10.564;2023-06-19T10:39:42;31.26;38.96
80132;SHT30;69442;51.442;10.564;2023-06-19T10:42:09;31.40;38.98
80132;SHT30;69442;51.442;10.564;2023-06-19T10:44:35;31.51;38.88
80132;SHT30;69442;51.442;10.564;2023-06-19T10:47:04;31.64;38.81
80132;SHT30;69442;51.442;10.564;2023-06-19T10:49:29;31.76;38.65
80132;SHT30;69442;51.442;10.564;2023-06-19T10:51:55;31.87;38.67
80132;SHT30;69442;51.442;10.564;2023-06-19T10:54:25;32.01;38.64
80132;SHT30;69442;51.442;10.564;2023-06-19T10:56:50;32.16;38.35
80132;SHT30;69442;51.442;10.564;2023-06-19T10:59:16;32.33;38.28
80132;SHT30;69442;51.442;10.564;2023-06-19T11:01:46;32.44;38.18
80132;SHT30;69442;51.442;10.564;2023-06-19T11:04:13;32.61;38.15
80132;SHT30;69442;51.442;10.564;2023-06-19T11:06:41;32.70;37.97
80132;SHT30;69442;51.442;10.564;2023-06-19T11:09:07;32.80;38.04
80132;SHT30;69442;51.442;10.564;2023-06-19T11:11:45;32.91;37.43
80132;SHT30;69442;51.442;10.564;2023-06-19T11:14:12;33.05;37.50
80132;SHT30;69442;51.442;10.564;2023-06-19T11:16:39;33.18;37.57
80132;SHT30;69442;51.442;10.564;2023-06-19T11:19:07;33.36;37.52
80132;SHT30;69442;51.442;10.564;2023-06-19T11:21:35;33.47;37.06
80132;SHT30;69442;51.442;10.564;2023-06-19T11:24:14;33.60;37.21
80132;SHT30;69442;51.442;10.564;2023-06-19T11:26:45;33.71;36.97
80132;SHT30;69442;51.442;10.564;2023-06-19T11:29:30;33.81;36.73
80132;SHT30;69442;51.442;10.564;2023-06-19T11:32:17;33.91;36.74
80132;SHT30;69442;51.442;10.564;2023-06-19T11:34:48;34.04;37.00
80132;SHT30;69442;51.442;10.564;2023-06-19T11:37:15;34.15;36.95
80132;SHT30;69442;51.442;10.564;2023-06-19T11:39:43;34.23;36.76
80132;SHT30;69442;51.442;10.564;2023-06-19T11:42:09;34.33;36.60
80132;SHT30;69442;51.442;10.564;2023-06-19T11:44:34;34.42;36.57
80132;SHT30;69442;51.442;10.564;2023-06-19T11:47:00;34.43;36.41
80132;SHT30;69442;51.442;10.564;2023-06-19T11:49:26;34.49;36.36
80132;SHT30;69442;51.442;10.564;2023-06-19T11:51:51;34.50;36.12
80132;SHT30;69442;51.442;10.564;2023-06-19T11:54:17;34.55;36.26
80132;SHT30;69442;51.442;10.564;2023-06-19T11:56:46;34.53;36.03
80132;SHT30;69442;51.442;10.564;2023-06-19T11:59:12;34.59;36.44
80132;SHT30;69442;51.442;10.564;2023-06-19T12:01:39;34.59;36.37
80132;SHT30;69442;51.442;10.564;2023-06-19T12:04:05;34.60;36.23
80132;SHT30;69442;51.442;10.564;2023-06-19T12:06:30;34.61;36.05
80132;SHT30;69442;51.442;10.564;2023-06-19T12:08:56;34.59;35.99
80132;SHT30;69442;51.442;10.564;2023-06-19T12:11:22;34.59;35.89
80132;SHT30;69442;51.442;10.564;2023-06-19T12:13:48;34.56;36.02
80132;SHT30;69442;51.442;10.564;2023-06-19T12:16:14;34.53;35.99
80132;SHT30;69442;51.442;10.564;2023-06-19T12:18:39;34.56;36.21
80132;SHT30;69442;51.442;10.564;2023-06-19T12:21:05;34.61;35.99
80132;SHT30;69442;51.442;10.564;2023-06-19T12:23:30;34.64;35.92
80132;SHT30;69442;51.442;10.564;2023-06-19T12:25:56;34.64;35.49
80132;SHT30;69442;51.442;10.564;2023-06-19T12:28:22;34.70;35.78
80132;SHT30;69442;51.442;10.564;2023-06-19T12:30:48;34.74;35.73
80132;SHT30;69442;51.442;10.564;2023-06-19T12:33:17;34.77;35.45
80132;SHT30;69442;51.442;10.564;2023-06-19T12:35:44;34.77;35.40
80132;SHT30;69442;51.442;10.564;2023-06-19T12:38:09;34.84;35.80
80132;SHT30;69442;51.442;10.564;2023-06-19T12:40:36;34.93;35.76
80132;SHT30;69442;51.442;10.564;2023-06-19T12:43:02;34.93;35.54
80132;SHT30;69442;51.442;10.564;2023-06-19T12:45:28;34.94;35.64
80132;SHT30;69442;51.442;10.564;2023-06-19T12:47:53;34.97;35.82
80132;SHT30;69442;51.442;10.564;2023-06-19T12:50:18;35.00;35.76
80132;SHT30;69442;51.442;10.564;2023-06-19T12:52:44;35.07;35.57
80132;SHT30;69442;51.442;10.564;2023-06-19T12:55:09;35.12;35.56
80132;SHT30;69442;51.442;10.564;2023-06-19T12:57:35;35.21;35.57
80132;SHT30;69442;51.442;10.564;2023-06-19T13:00:00;35.29;35.28
80132;SHT30;69442;51.442;10.564;2023-06-19T13:02:25;35.41;35.47
80132;SHT30;69442;51.442;10.564;2023-06-19T13:04:52;35.50;35.60
80132;SHT30;69442;51.442;10.564;2023-06-19T13:07:17;35.66;35.56
80132;SHT30;69442;51.442;10.564;2023-06-19T13:09:42;35.77;35.40
80132;SHT30;69442;51.442;10.564;2023-06-19T13:12:08;35.86;35.29
80132;SHT30;69442;51.442;10.564;2023-06-19T13:14:34;35.97;35.36
80132;SHT30;69442;51.442;10.564;2023-06-19T13:16:59;36.07;35.14
80132;SHT30;69442;51.442;10.564;2023-06-19T13:19:25;36.17;34.94
80132;SHT30;69442;51.442;10.564;2023-06-19T13:21:51;36.28;34.95
80132;SHT30;69442;51.442;10.564;2023-06-19T13:24:16;36.39;34.73
80132;SHT30;69442;51.442;10.564;2023-06-19T13:26:43;36.48;34.72
80132;SHT30;69442;51.442;10.564;2023-06-19T13:29:08;36.57;34.43
80132;SHT30;69442;51.442;10.564;2023-06-19T13:31:34;36.66;34.56
80132;SHT30;69442;51.442;10.564;2023-06-19T13:33:59;36.73;34.35
80132;SHT30;69442;51.442;10.564;2023-06-19T13:36:25;36.83;34.45
80132;SHT30;69442;51.442;10.564;2023-06-19T13:38:52;36.94;34.32
80132;SHT30;69442;51.442;10.564;2023-06-19T13:41:17;37.07;34.20
80132;SHT30;69442;51.442;10.564;2023-06-19T13:43:43;37.21;33.96
80132;SHT30;69442;51.442;10.564;2023-06-19T13:46:10;37.32;33.56
80132;SHT30;69442;51.442;10.564;2023-06-19T13:48:36;37.42;33.63
80132;SHT30;69442;51.442;10.564;2023-06-19T13:51:01;37.56;32.77
80132;SHT30;69442;51.442;10.564;2023-06-19T13:53:27;37.65;32.51
80132;SHT30;69442;51.442;10.564;2023-06-19T13:55:54;37.72;31.85
80132;SHT30;69442;51.442;10.564;2023-06-19T13:58:19;37.77;31.84
80132;SHT30;69442;51.442;10.564;2023-06-19T14:00:44;37.79;31.67
80132;SHT30;69442;51.442;10.564;2023-06-19T14:03:10;37.87;31.74
80132;SHT30;69442;51.442;10.564;2023-06-19T14:05:35;38.01;31.96
80132;SHT30;69442;51.442;10.564;2023-06-19T14:08:01;38.10;31.95
80132;SHT30;69442;51.442;10.564;2023-06-19T14:10:28;38.17;31.76
80132;SHT30;69442;51.442;10.564;2023-06-19T14:12:53;38.25;32.15
80132;SHT30;69442;51.442;10.564;2023-06-19T14:15:19;38.34;31.70
80132;SHT30;69442;51.442;10.564;2023-06-19T14:17:44;38.39;31.91
80132;SHT30;69442;51.442;10.564;2023-06-19T14:20:10;38.47;31.18
80132;SHT30;69442;51.442;10.564;2023-06-19T14:22:36;38.55;31.17
80132;SHT30;69442;51.442;10.564;2023-06-19T14:25:01;38.60;31.10
80132;SHT30;69442;51.442;10.564;2023-06-19T14:27:28;38.66;31.40
80132;SHT30;69442;51.442;10.564;2023-06-19T14:29:55;38.70;31.03
80132;SHT30;69442;51.442;10.564;2023-06-19T14:32:21;38.75;30.52
80132;SHT30;69442;51.442;10.564;2023-06-19T14:34:47;38.70;28.94
80132;SHT30;69442;51.442;10.564;2023-06-19T14:37:12;38.76;30.31
80132;SHT30;69442;51.442;10.564;2023-06-19T14:39:38;38.80;30.43
80132;SHT30;69442;51.442;10.564;2023-06-19T14:42:04;38.83;30.48
80132;SHT30;69442;51.442;10.564;2023-06-19T14:44:30;38.82;30.54
80132;SHT30;69442;51.442;10.564;2023-06-19T14:46:55;38.87;30.91
80132;SHT30;69442;51.442;10.564;2023-06-19T14:49:21;38.93;31.00
80132;SHT30;69442;51.442;10.564;2023-06-19T14:51:46;39.00;31.16
80132;SHT30;69442;51.442;10.564;2023-06-19T14:54:11;39.04;31.18
80132;SHT30;69442;51.442;10.564;2023-06-19T14:56:38;39.13;30.87
80132;SHT30;69442;51.442;10.564;2023-06-19T14:59:03;39.13;30.76
80132;SHT30;69442;51.442;10.564;2023-06-19T15:01:29;39.11;30.57
80132;SHT30;69442;51.442;10.564;2023-06-19T15:03:54;39.07;30.24
80132;SHT30;69442;51.442;10.564;2023-06-19T15:06:19;39.00;30.25
80132;SHT30;69442;51.442;10.564;2023-06-19T15:08:45;38.92;30.22
80132;SHT30;69442;51.442;10.564;2023-06-19T15:11:10;38.86;30.31
80132;SHT30;69442;51.442;10.564;2023-06-19T15:13:36;38.79;30.41
80132;SHT30;69442;51.442;10.564;2023-06-19T15:16:01;38.65;30.36
80132;SHT30;69442;51.442;10.564;2023-06-19T15:18:27;38.56;29.81